Pagrindinis puslapis
METAR-TAF:

METAR-TAF

Oro uostai :

Pataja-Rayong, Tailandas

platuma: 12-38N, ilguma: 101-21E, Aukštis: 3 m

Dabartinis oras

Ataskaita buvo paskelbta 34 minutes, ne 14:30 UTC
Vėjas 4 kt iš Šiaurės
Temperatūra 25°C
Drėgmė 79%
Slėgis 1012 hPa
Matomumas: 8000 m
Mažai debesys ne aukštis 2500 ft

METAR: VTBU 201430Z 01004KT 8000 FEW025 25/21 Q1012 NOSIG

Laikas: 22:04 (15:04 UTC)

Prognozė

Ataskaita buvo paskelbta 4 valandos ir 4 minutes, ne 11:00 UTC
Prognozė galioja nuo 20 metu 12 UTC su 21 metu 12 UTC
Vėjas 4 kt iš Šiaurės
Matomumas: 8000 m
Mažai debesys ne aukštis 2000 ft
Tapsmas
nuo 21 metu 02 UTC su 21 metu 04 UTC
Vėjas 8 kt iš Pietų
Matomumas 10 km arba daugiau

TAF: VTBU 201100Z 2012/2112 36004KT 8000 FEW020 BECMG 2102/2104 18008KT 9999

Orai ataskaitas ir orų prognozės (METAR, TAF).

turimą stotys yra geltonos ir raudonos taškus žemėlapyje.

Perkelti pele per norėdami pamatyti stoties vardą.

Tada spustelėkite, norėdami matyti oro stebėjimo ir prognozės.

Norėdami pakeisti žemėlapį: spustelėkite ant žalios mygtukų su juodo kryžiaus žemyn,; žalią mygtuką su brūkšneliu, jei norite nutolinti; arba žalių rodyklių gretimoms žemėlapius.


METAR-TAF: